Flight Track Log - Related Links

Times and Time Zones

All times are in EDT time to prevent confusion due to time zone crossing. See the CHQ5046 flight status page for this flight to view local times or setup timezone preferences in your user account.

Time Position Orientation Groundspeed Altitude Reporting Facility
EDT Latitude Longitude Course Direction KTS MPH feet Rate Location/Type
Thu 06:57:33 PM 41.9333 -87.9167 87° East 178 205 2,200  Level Chicago TRACON
Thu 06:58:33 PM 41.9000 -87.8500 124° Southeast 223 257 4,000 1,450 Climbing Chicago TRACON
Thu 06:59:00 PM 42.0409 -87.4761 84° East  Level FlightAware Approximate
Thu 06:59:33 PM 41.9000 -87.7500 90° East 273 314 5,100  Level Chicago TRACON
Thu 07:00:00 PM 42.0563 -87.3268 78° East  Level FlightAware Approximate
Thu 07:00:33 PM 41.9333 -87.6500 66° East 281 323 7,000  Level Chicago TRACON
Thu 07:01:00 PM 42.0797 -87.1792 78° East  Level FlightAware Approximate
Thu 07:01:33 PM 41.9500 -87.5667 75° East 245 282 10,500  Level Chicago TRACON
Thu 07:02:00 PM 42.1008 -87.0311 87° East  Level FlightAware Approximate
Thu 07:02:52 PM 41.9647 -87.4403 81° East 273 314 10,900  Level Chicago Center
Thu 07:03:54 PM 41.9800 -87.3350 79° East 289 333 10,900  Level Chicago Center
Thu 07:04:56 PM 41.9983 -87.2164 78° East 275 316 10,900  Level Chicago Center
Thu 07:05:58 PM 42.0122 -87.1175 79° East 272 313 10,900 48 Level Chicago Center
Thu 07:07:01 PM 42.0272 -87.0186 78° East 272 313 11,000 48 Climbing Chicago Center
Thu 07:08:03 PM 42.0417 -86.9200 79° East 270 311 11,000  Level Chicago Center
Thu 07:09:05 PM 42.0561 -86.8214 79° East 270 311 11,000  Level Chicago Center
Thu 07:10:07 PM 42.0725 -86.7039 79° East 269 310 11,000  Level Chicago Center
Thu 07:11:09 PM 42.0861 -86.6186 78° East 271 312 11,000  Level Chicago Center
Thu 07:12:11 PM 42.1031 -86.5006 79° East 268 308 11,000  Level Chicago Center
Thu 07:13:13 PM 42.1164 -86.4022 80° East 267 307 11,000  Level Chicago Center
Thu 07:14:15 PM 42.1314 -86.3044 78° East 267 307 11,000  Level Chicago Center
Thu 07:15:17 PM 42.1439 -86.2092 80° East 260 299 11,000  Level Chicago Center
Thu 07:16:19 PM 42.1583 -86.1122 79° East 263 303 11,000 -629 Level Chicago Center
Thu 07:17:21 PM 42.1706 -86.0153 80° East 263 303 9,700 -1,536 Descending Chicago Center
Thu 07:18:24 PM 42.1883 -85.9178 76° East 266 306 7,800 -2,016 Descending Chicago Center
Thu 07:19:26 PM 42.2317 -85.8086 62° Northeast 277 319 5,500 -1,452 Descending Chicago Center
Thu 07:20:28 PM 42.2819 -85.7381 46° Northeast 263 303 4,800 -677 Descending Chicago Center

Login

Don't have an account? Register now (free) for customized features, flight alerts, and more!